KSTL/STL METAR and TAF weather

Enter ICAO airport designator
Station Type Date Time Source
KSTL METAR 2017/03/23 17:51 UTC NOAA

KSTL 231751Z 13015KT 10SM OVC046 08/03 A3022 RMK AO2 SLP239 60008 T00780033 10078 20039 58025


Station Type Date Time Source
KSTL Decoded METAR 2017/03/23 17:51 UTC NOAA

LAMBERT-ST LOUIS INTERNATIONAL AIRPORT , MO, United States (KSTL) 38-45N 90-22W 171M
Mar 23, 2017 - 01:51 PM EDT / 2017.03.23 1751 UTC
Wind: from the SE (130 degrees) at 17 MPH (15 KT):0
Visibility: 10 mile(s):0
Sky conditions: overcast
Temperature: 46.0 F (7.8 C)
Dew Point: 37.9 F (3.3 C)
Relative Humidity: 73%
Pressure (altimeter): 30.22 in. Hg (1023 hPa)
Pressure tendency: 0.07 inches (2.5 hPa) lower than three hours ago
ob: KSTL 231751Z 13015KT 10SM OVC046 08/03 A3022 RMK AO2 SLP239 60008 T00780033 10078 20039 58025
cycle: 18

Station Type Date Time Source
KSTL TAF 2017/03/23 18:42 UTC NOAA

TAF KSTL 231739Z 2318/2424 13009KT P6SM BKN060
FM232000 14012KT P6SM SCT200
FM240300 16011G17KT P6SM FEW130 WS020/19045KT
FM241400 18012G18KT P6SM BKN040
FM241700 18016G26KT P6SM BKN040


Example: see airport list